Latest Weather Observations for Jandakot

IDW60901

Issued at 7:31 am WST Sunday 24 June 2018 (issued every 10 minutes, with the page automatically refreshed every 10 minutes)

About weather observations | Map of Perth area stations | Latest observations for Perth area | Other Formats
Station Details ID: 009172 Name: JANDAKOT AERO Lat: -32.10 Lon: 115.88 Height: 30.0 m
Data from the previous 72 hours. | See also: Recent months at Jandakot
Date/Time
WST
Temp
°C
App
Temp
°C
Dew
Point
°C
Rel
Hum
%
Delta-T
°C
Wind Press
QNH
hPa
Press
MSL
hPa
Rain since
9am
mm
Dir  Spd
km/h
Gust
km/h
Spd
kts
Gust
kts
24/07:30am 6.6 4.5 6.6 100 0.0 E 7 9 4 5 1030.8 1030.8 0.0
24/07:00am 5.6 2.9 5.6 100 0.0 E 9 9 5 5 1030.5 1030.5 0.0
24/06:30am 5.5 2.8 5.4 99 0.0 E 9 11 5 6 1030.2 1030.2 0.0
24/06:00am 6.3 4.1 6.2 99 0.0 E 7 9 4 5 1030.0 1030.0 0.0
24/05:30am 6.0 3.9 6.0 100 0.0 E 6 7 3 4 1029.9 1029.9 0.0
24/05:00am 6.0 3.7 5.9 99 0.0 E 7 7 4 4 1029.7 1029.7 0.0
24/04:30am 7.0 6.3 6.9 99 0.0 CALM 0 0 0 0 1029.7 1029.7 0.0
24/04:00am 6.6 5.8 6.3 98 0.1 CALM 0 0 0 0 1029.5 1029.5 0.0
24/03:30am 6.7 5.1 6.4 98 0.1 ENE 4 7 2 4 1029.6 1029.6 0.0
24/03:00am 7.1 5.0 6.7 97 0.2 E 7 9 4 5 1029.8 1029.8 0.0
24/02:30am 8.0 6.4 7.9 99 0.0 ENE 6 7 3 4 1029.9 1029.9 0.0
24/02:00am 7.7 5.9 7.3 97 0.2 ESE 6 7 3 4 1029.8 1029.8 0.0
24/01:30am 8.3 6.7 7.9 97 0.2 ESE 6 7 3 4 1029.9 1029.9 0.0
24/01:00am 8.8 7.0 8.0 95 0.4 ESE 7 7 4 4 1029.8 1029.8 0.0
24/12:30am 9.6 8.0 8.7 94 0.4 E 7 7 4 4 1029.8 1029.8 0.0
24/12:00am 9.9 8.5 8.8 93 0.5 NE 6 9 3 5 1030.2 1030.2 0.0
 
Date/Time
WST
Temp
°C
App
Temp
°C
Dew
Point
°C
Rel
Hum
%
Delta-T
°C
Wind Press
QNH
hPa
Press
MSL
hPa
Rain since
9am
mm
Dir  Spd
km/h
Gust
km/h
Spd
kts
Gust
kts
23/11:30pm 10.0 8.1 9.2 95 0.4 ESE 9 11 5 6 1030.3 1030.3 0.0
23/11:00pm 10.3 8.9 9.5 95 0.4 ESE 7 9 4 5 1030.3 1030.3 0.0
23/10:30pm 10.3 8.5 9.5 95 0.4 ESE 9 9 5 5 1030.6 1030.6 0.0
23/10:00pm 10.1 8.3 9.5 96 0.3 ESE 9 11 5 6 1030.7 1030.7 0.0
23/09:30pm 10.6 9.5 10.0 96 0.3 SE 6 7 3 4 1030.8 1030.8 0.0
23/09:00pm 11.2 11.4 10.6 96 0.3 CALM 0 6 0 3 1030.9 1030.9 0.0
23/08:30pm 11.7 10.6 10.6 93 0.6 SE 7 7 4 4 1030.8 1030.8 0.0
23/08:00pm 12.7 11.3 10.9 89 0.9 SE 9 13 5 7 1030.8 1030.8 0.0
23/07:30pm 12.6 10.5 11.2 91 0.7 SE 13 17 7 9 1030.6 1030.6 0.0
23/07:00pm 13.3 13.0 11.5 89 0.9 SSE 4 7 2 4 1030.5 1030.5 0.0
23/06:30pm 13.4 12.6 11.6 89 1.0 S 7 11 4 6 1030.1 1030.1 0.0
23/06:00pm 14.3 14.9 11.8 85 1.3 CALM 0 0 0 0 1029.6 1029.6 0.0
23/05:30pm 15.7 14.8 11.3 75 2.4 ESE 7 9 4 5 1029.4 1029.4 0.0
23/05:00pm 17.8 16.5 11.4 66 3.5 SE 9 11 5 6 1029.2 1029.2 0.0
23/04:30pm 19.5 17.9 10.2 55 5.0 SE 9 13 5 7 1029.1 1029.1 0.0
23/04:00pm 20.0 18.2 9.3 50 5.6 ESE 9 13 5 7 1028.8 1028.8 0.0
23/03:30pm 19.0 18.3 11.3 61 4.2 ENE 6 6 3 3 1028.7 1028.7 0.0
23/03:00pm 17.8 18.6 12.7 72 2.8 CALM 0 0 0 0 1028.6 1028.6 0.0
23/02:30pm 18.7 19.2 11.5 63 3.9 CALM 0 0 0 0 1028.6 1028.6 0.0
23/02:00pm 19.1 18.6 12.1 64 3.9 E 6 7 3 4 1028.7 1028.7 0.0
23/01:30pm 20.2 18.9 10.0 52 5.5 SSE 7 9 4 5 1028.9 1028.9 0.0
23/01:00pm 20.9 19.9 10.4 51 5.7 W 6 13 3 7 1029.3 1029.3 0.0
23/12:30pm 20.6 19.5 10.7 53 5.4 ENE 7 13 4 7 1029.6 1029.6 0.0
23/12:00pm 19.8 18.6 11.6 59 4.5 NNE 9 13 5 7 1030.0 1030.0 0.0
23/11:30am 18.9 17.7 11.7 63 4.0 NNE 9 13 5 7 1030.4 1030.4 0.0
23/11:00am 18.4 17.9 12.6 69 3.2 NE 7 13 4 7 1030.7 1030.7 0.0
23/10:30am 17.5 16.7 12.8 74 2.6 NNE 9 11 5 6 1031.0 1031.0 0.0
23/10:00am 16.1 15.2 12.5 79 2.0 NE 9 13 5 7 1031.1 1031.1 0.0
23/09:30am 14.2 13.7 12.1 87 1.1 ENE 6 9 3 5 1031.1 1031.1 0.0
23/09:00am 12.3 12.8 11.7 96 0.3 CALM 0 0 0 0 1030.7 1030.7 0.0
23/08:30am 10.2 10.3 10.2 100 0.0 CALM 0 0 0 0 1030.5 1030.5 0.0
23/08:00am 8.3 7.9 8.3 100 0.0 CALM 0 0 0 0 1030.3 1030.3 0.0
23/07:30am 7.2 5.4 7.2 100 0.0 E 6 7 3 4 1029.8 1029.8 0.0
23/07:00am 7.5 5.6 7.5 100 0.0 E 7 7 4 4 1029.6 1029.6 0.0
23/06:59am 7.5 5.6 7.5 100 0.0 E 7 7 4 4 1029.6 1029.6 0.0
23/06:43am 7.9 6.1 7.9 100 0.0 E 7 9 4 5 1029.6 1029.6 0.0
23/06:30am 8.1 6.5 8.1 100 0.0 E 6 7 3 4 1029.5 1029.5 0.0
23/06:24am 7.6 6.3 7.6 100 0.0 E 4 7 2 4 1029.4 1029.4 0.0
23/06:00am 8.1 7.7 8.1 100 0.0 CALM 0 0 0 0 1029.2 1029.2 0.0
23/05:30am 7.4 5.1 7.4 100 0.0 E 9 9 5 5 1029.1 1029.1 0.0
23/05:23am 7.4 5.1 7.4 100 0.0 E 9 9 5 5 1029.1 1029.1 0.0
23/05:04am 8.1 6.5 8.1 100 0.0 ENE 6 7 3 4 1029.1 1029.1 0.0
23/05:00am 8.1 6.5 8.1 100 0.0 ENE 6 7 3 4 1029.1 1029.1 0.0
23/04:55am 8.0 6.4 8.0 100 0.0 ENE 6 7 3 4 1029.0 1029.0 0.0
23/04:42am 8.5 7.0 8.5 100 0.0 NE 6 6 3 3 1029.0 1029.0 0.0
23/04:30am 8.2 6.6 8.2 100 0.0 NE 6 7 3 4 1029.0 1029.0 0.0
23/04:00am 8.9 7.3 8.9 100 0.0 E 7 9 4 5 1028.9 1028.9 0.0
23/03:40am 9.1 7.2 9.1 100 0.0 E 9 11 5 6 1029.1 1029.1 0.0
23/03:30am 8.6 6.6 8.5 99 0.0 E 9 11 5 6 1029.1 1029.1 0.0
23/03:19am 9.0 7.4 8.9 99 0.0 E 7 9 4 5 1029.1 1029.1 0.0
23/03:00am 9.4 7.9 9.1 98 0.1 E 7 9 4 5 1029.1 1029.1 0.0
23/02:30am 10.9 9.8 10.7 99 0.1 ENE 7 7 4 4 1029.1 1029.1 0.0
23/02:00am 10.9 11.1 10.7 99 0.1 CALM 0 7 0 4 1029.1 1029.1 0.0
23/01:30am 11.0 9.5 10.5 97 0.3 ENE 9 13 5 7 1029.1 1029.1 0.0
23/01:00am 11.6 9.5 11.3 98 0.2 E 13 15 7 8 1029.1 1029.1 0.0
23/12:30am 11.1 8.9 10.8 98 0.2 ESE 13 15 7 8 1029.3 1029.3 0.0
23/12:00am 11.6 9.5 11.3 98 0.2 ESE 13 15 7 8 1029.3 1029.3 0.0
 
Date/Time
WST
Temp
°C
App
Temp
°C
Dew
Point
°C
Rel
Hum
%
Delta-T
°C
Wind Press
QNH
hPa
Press
MSL
hPa
Rain since
9am
mm
Dir  Spd
km/h
Gust
km/h
Spd
kts
Gust
kts
22/11:30pm 11.7 9.7 11.5 99 0.1 ESE 13 13 7 7 1029.4 1029.4 0.0
22/11:00pm 12.2 11.1 12.0 99 0.1 E 9 11 5 6 1029.4 1029.4 0.0
22/10:30pm 12.2 11.5 11.9 98 0.2 ESE 7 9 4 5 1029.5 1029.5 0.0
22/10:00pm 12.8 11.9 12.5 98 0.2 ESE 9 11 5 6 1029.5 1029.5 0.0
22/09:30pm 13.5 13.1 12.9 96 0.3 ESE 7 9 4 5 1029.6 1029.6 0.0
22/09:00pm 14.3 14.1 13.5 95 0.4 ESE 7 7 4 4 1029.5 1029.5 0.0
22/08:30pm 14.7 13.8 13.6 93 0.6 SE 11 13 6 7 1029.3 1029.3 0.0
22/08:00pm 15.3 14.4 13.7 90 0.9 SE 11 13 6 7 1029.3 1029.3 0.0
22/07:30pm 15.7 14.6 14.2 91 0.9 SE 13 15 7 8 1029.2 1029.2 0.0
22/07:00pm 15.9 15.2 14.4 91 0.8 SE 11 13 6 7 1028.9 1028.9 0.0
22/06:30pm 16.0 15.7 14.4 90 0.9 SSE 9 11 5 6 1028.6 1028.6 0.0
22/06:00pm 16.7 16.1 14.5 87 1.3 SSE 11 11 6 6 1028.4 1028.4 0.0
22/05:30pm 17.2 17.3 14.5 84 1.6 SE 7 9 4 5 1028.3 1028.3 0.0
22/05:00pm 17.7 17.7 14.2 80 2.0 SSE 7 9 4 5 1028.2 1028.2 0.0
22/04:30pm 18.4 19.2 13.7 74 2.7 ESE 2 7 1 4 1028.2 1028.2 0.0
22/04:00pm 18.5 18.3 12.9 70 3.1 ENE 6 9 3 5 1028.2 1028.2 0.0
22/03:30pm 18.7 18.9 12.9 69 3.3 NE 4 6 2 3 1028.1 1028.1 0.0
22/03:00pm 18.9 18.7 12.9 68 3.4 NE 6 9 3 5 1028.0 1028.0 0.0
22/02:30pm 19.0 19.8 12.5 66 3.6 CALM 0 4 0 2 1028.0 1028.0 0.0
22/02:00pm 19.1 18.7 12.4 65 3.7 NE 6 11 3 6 1028.1 1028.1 0.0
22/01:30pm 19.1 18.6 11.9 63 4.0 NNE 6 13 3 7 1028.3 1028.3 0.0
22/01:00pm 19.3 18.5 13.0 67 3.5 NE 9 11 5 6 1028.6 1028.6 0.0
22/12:30pm 18.7 18.2 12.7 68 3.4 NE 7 11 4 6 1029.0 1029.0 0.0
22/12:00pm 18.4 17.9 13.7 74 2.7 ENE 9 11 5 6 1029.4 1029.4 0.0
22/11:30am 18.1 18.0 13.8 76 2.5 ENE 7 13 4 7 1029.8 1029.8 0.0
22/11:00am 17.9 17.9 14.2 79 2.1 NNE 7 11 4 6 1030.0 1030.0 0.0
22/10:30am 17.3 16.9 14.2 82 1.8 ENE 9 13 5 7 1030.3 1030.3 0.0
22/10:00am 16.5 15.6 13.6 83 1.6 ENE 11 15 6 8 1030.3 1030.3 0.0
22/09:30am 15.4 15.3 13.8 90 0.9 NE 7 9 4 5 1030.1 1030.1 0.0
22/09:00am 14.6 14.6 14.1 97 0.3 E 7 11 4 6 1029.9 1029.9 3.0
22/08:30am 12.9 12.5 12.9 100 0.0 NE 7 13 4 7 1029.8 1029.8 3.0
22/08:00am 12.2 11.6 12.2 100 0.0 E 7 9 4 5 1029.9 1029.9 3.0
22/07:30am 12.2 11.6 12.2 100 0.0 SE 7 9 4 5 1029.5 1029.5 3.0
22/07:00am 12.0 11.3 12.0 100 0.0 E 7 7 4 4 1029.2 1029.2 3.0
22/06:30am 11.8 11.2 11.8 100 0.0 ESE 6 7 3 4 1028.9 1028.9 3.0
22/06:00am 11.8 12.4 11.8 100 0.0 CALM 0 0 0 0 1028.6 1028.6 3.0
22/05:30am 11.7 10.5 11.7 100 0.0 SSE 9 9 5 5 1028.3 1028.3 3.0
22/05:00am 11.4 11.8 11.4 100 0.0 CALM 0 2 0 1 1028.1 1028.1 3.0
22/04:30am 11.1 11.5 11.1 100 0.0 CALM 0 0 0 0 1027.9 1027.9 3.0
22/04:00am 10.8 11.1 10.8 100 0.0 CALM 0 0 0 0 1028.0 1028.0 3.0
22/03:30am 10.4 10.6 10.4 100 0.0 CALM 0 0 0 0 1028.1 1028.1 3.0
22/03:00am 10.6 10.8 10.6 100 0.0 CALM 0 0 0 0 1028.1 1028.1 3.0
22/02:30am 10.9 11.2 10.9 100 0.0 CALM 0 6 0 3 1028.0 1028.0 3.0
22/02:27am 11.0 11.3 11.0 100 0.0 CALM 0 0 0 0 1028.0 1028.0 3.0
22/02:04am 11.2 10.4 11.2 100 0.0 NE 6 9 3 5 1028.0 1028.0 3.0
22/02:00am 11.3 11.3 11.3 100 0.0 E 2 9 1 5 1027.9 1027.9 3.0
22/01:30am 11.5 12.0 11.5 100 0.0 CALM 0 0 0 0 1028.1 1028.1 3.0
22/01:00am 11.7 12.2 11.7 100 0.0 CALM 0 0 0 0 1028.4 1028.4 3.0
22/12:30am 11.0 11.3 11.0 100 0.0 CALM 0 0 0 0 1028.5 1028.5 3.0
22/12:00am 10.9 10.8 10.9 100 0.0 SE 2 6 1 3 1028.6 1028.6 2.8
 
Date/Time
WST
Temp
°C
App
Temp
°C
Dew
Point
°C
Rel
Hum
%
Delta-T
°C
Wind Press
QNH
hPa
Press
MSL
hPa
Rain since
9am
mm
Dir  Spd
km/h
Gust
km/h
Spd
kts
Gust
kts
21/11:40pm 10.9 9.5 10.9 100 0.0 SSE 9 15 5 8 1028.7 1028.7 2.8
21/11:30pm 10.7 8.5 10.7 100 0.0 SSE 13 20 7 11 1028.7 1028.7 2.8
21/11:11pm 9.4 9.3 9.4 100 0.0 CALM 0 0 0 0 1028.6 1028.6 2.8
21/11:00pm 9.8 9.4 9.8 100 0.0 E 2 6 1 3 1028.6 1028.6 2.8
21/10:30pm 9.6 8.4 9.6 100 0.0 E 6 7 3 4 1028.6 1028.6 2.8
21/10:00pm 10.1 10.2 10.1 100 0.0 CALM 0 7 0 4 1028.6 1028.6 2.8
21/09:30pm 10.0 10.1 10.0 100 0.0 CALM 0 0 0 0 1028.6 1028.6 2.8
21/09:00pm 10.5 10.7 10.5 100 0.0 CALM 0 0 0 0 1028.8 1028.8 2.8
21/08:30pm 10.7 10.9 10.7 100 0.0 CALM 0 0 0 0 1028.8 1028.8 2.8
21/08:00pm 11.3 11.7 11.3 100 0.0 CALM 0 0 0 0 1028.8 1028.8 2.8
21/07:54pm 11.4 11.8 11.4 100 0.0 CALM 0 0 0 0 1028.7 1028.7 2.8
21/07:30pm 12.0 12.6 12.0 100 0.0 CALM 0 0 0 0 1028.7 1028.7 2.8
21/07:00pm 12.5 13.3 12.5 100 0.0 CALM 0 0 0 0 1028.6 1028.6 2.8
21/06:30pm 13.4 14.5 13.4 100 0.0 CALM 0 0 0 0 1028.5 1028.5 2.8
21/06:20pm 13.8 15.0 13.8 100 0.0 CALM 0 0 0 0 1028.4 1028.4 2.8
21/06:00pm 14.6 15.3 14.6 100 0.0 NE 4 6 2 3 1028.2 1028.2 2.8
21/05:30pm 14.8 15.0 14.8 100 0.0 NE 7 9 4 5 1028.0 1028.0 2.8
21/05:00pm 15.1 14.7 15.1 100 0.0 NE 11 15 6 8 1028.0 1028.0 2.8
21/04:30pm 15.3 14.9 15.3 100 0.0 NNE 11 13 6 7 1028.1 1028.1 2.8
21/04:00pm 15.4 15.8 15.4 100 0.0 NE 7 9 4 5 1028.0 1028.0 2.6
21/03:30pm 15.3 14.9 15.3 100 0.0 ENE 11 13 6 7 1027.8 1027.8 2.6
21/03:00pm 15.2 15.2 15.2 100 0.0 E 9 11 5 6 1027.8 1027.8 2.6
21/02:30pm 14.8 15.1 14.5 98 0.2 SSE 6 11 3 6 1027.8 1027.8 2.4
21/02:00pm 15.4 13.9 15.2 99 0.1 SSE 17 22 9 12 1027.7 1027.7 0.8
21/01:30pm 15.3 13.1 14.8 97 0.3 S 20 28 11 15 1027.8 1027.8 0.6
21/01:00pm 18.5 17.3 12.9 70 3.1 NW 11 17 6 9 1027.8 1027.8 0.0
21/12:30pm 18.8 18.4 13.0 69 3.3 NNW 7 11 4 6 1028.1 1028.1 0.0
21/12:00pm 18.0 16.6 12.2 69 3.2 NNW 11 15 6 8 1028.5 1028.5 0.0
21/11:30am 17.4 16.0 12.1 71 2.9 NNW 11 17 6 9 1029.0 1029.0 0.0
21/11:00am 17.4 17.0 12.9 75 2.5 N 7 11 4 6 1029.1 1029.1 0.0
21/10:30am 16.7 15.6 13.0 79 2.1 NNE 11 13 6 7 1029.2 1029.2 0.0
21/10:00am 16.0 15.3 13.1 83 1.6 NNE 9 11 5 6 1029.3 1029.3 0.0
21/09:30am 14.4 13.2 12.8 90 0.9 NNE 11 15 6 8 1029.3 1029.3 0.0
21/09:00am 13.1 12.6 12.8 98 0.2 NNE 7 11 4 6 1029.3 1029.3 0.2
21/08:30am 11.7 10.5 11.7 100 0.0 NNE 9 13 5 7 1029.1 1029.1 0.2
21/08:00am 10.3 10.4 10.3 100 0.0 CALM 0 0 0 0 1028.8 1028.8 0.2

Latest Capital City Observations: Canberra | Sydney | Melbourne | Brisbane | Adelaide | Perth | Hobart | Darwin

Other Formats:

Comma delimited format used in spreadsheet applications
http://www.bom.gov.au/fwo/IDW60901/IDW60901.94609.axf

JavaScript Object Notation format (JSON) in row-major order
http://www.bom.gov.au/fwo/IDW60901/IDW60901.94609.json